createdAt,value
2017-12-07T00:00:53.785Z,0
2017-12-07T00:02:03.546Z,0
2017-12-07T00:03:13.566Z,0
2017-12-07T00:04:23.245Z,0
2017-12-07T00:05:32.443Z,0
2017-12-07T00:06:42.401Z,0
2017-12-07T00:07:52.358Z,0
2017-12-07T00:09:01.535Z,0
2017-12-07T00:10:10.709Z,0
2017-12-07T00:11:20.658Z,0
2017-12-07T00:12:30.338Z,0
2017-12-07T00:13:40.280Z,0
2017-12-07T00:14:49.960Z,0
2017-12-07T00:15:59.644Z,0
2017-12-07T00:17:09.335Z,0
2017-12-07T00:18:19.275Z,0
2017-12-07T00:19:28.955Z,0
2017-12-07T00:20:38.901Z,0
2017-12-07T00:21:48.579Z,0
2017-12-07T00:22:58.532Z,0
2017-12-07T00:24:08.487Z,0
2017-12-07T00:25:18.430Z,0
2017-12-07T00:26:28.389Z,0
2017-12-07T00:27:38.334Z,0
2017-12-07T00:28:48.024Z,0
2017-12-07T00:29:57.724Z,0
2017-12-07T00:31:07.405Z,0
2017-12-07T00:32:17.087Z,0
2017-12-07T00:33:27.038Z,0
2017-12-07T00:34:36.991Z,0
2017-12-07T00:35:46.672Z,0
2017-12-07T00:36:56.627Z,0
2017-12-07T00:38:06.575Z,0
2017-12-07T00:39:16.269Z,0
2017-12-07T00:40:25.964Z,0
2017-12-07T00:41:35.939Z,0
2017-12-07T00:42:45.879Z,0
2017-12-07T00:43:55.833Z,0
2017-12-07T00:45:05.791Z,0
2017-12-07T00:46:15.217Z,0
2017-12-07T00:47:24.898Z,0
2017-12-07T00:48:34.585Z,0
2017-12-07T00:49:44.282Z,0
2017-12-07T00:50:54.252Z,0
2017-12-07T00:52:03.962Z,0
2017-12-07T00:53:13.154Z,0
2017-12-07T00:54:22.579Z,0
2017-12-07T00:55:32.531Z,0
2017-12-07T00:56:42.240Z,0
2017-12-07T00:57:51.940Z,0
2017-12-07T00:59:01.886Z,0
2017-12-07T01:00:10.792Z,0
2017-12-07T01:01:20.674Z,0
2017-12-07T01:02:30.619Z,0
2017-12-07T01:03:40.929Z,0
2017-12-07T01:04:50.353Z,0
2017-12-07T01:06:00.032Z,0
2017-12-07T01:07:09.727Z,0
2017-12-07T01:08:19.416Z,0
2017-12-07T01:09:29.109Z,0
2017-12-07T01:10:38.799Z,0
2017-12-07T01:11:47.716Z,0
2017-12-07T01:12:57.651Z,0
2017-12-07T01:14:07.599Z,0
2017-12-07T01:15:17.540Z,0
2017-12-07T01:16:27.224Z,0
2017-12-07T01:17:36.921Z,0
2017-12-07T01:18:46.612Z,0
2017-12-07T01:19:56.040Z,0
2017-12-07T01:21:05.981Z,0
2017-12-07T01:22:15.420Z,0
2017-12-07T01:23:25.400Z,0
2017-12-07T01:24:35.093Z,0
2017-12-07T01:25:44.524Z,0
2017-12-07T01:26:54.222Z,0
2017-12-07T01:28:03.715Z,0
2017-12-07T01:29:13.672Z,0
2017-12-07T01:30:23.624Z,0
2017-12-07T01:31:33.570Z,0
2017-12-07T01:32:43.009Z,0
2017-12-07T01:33:52.694Z,0
2017-12-07T01:35:02.648Z,0
2017-12-07T01:36:12.606Z,0
2017-12-07T01:37:22.564Z,0
2017-12-07T01:38:32.256Z,0
2017-12-07T01:39:41.957Z,0
2017-12-07T01:40:51.447Z,0
2017-12-07T01:42:01.143Z,0
2017-12-07T01:43:10.837Z,0
2017-12-07T01:44:20.792Z,0
2017-12-07T01:45:30.234Z,0
2017-12-07T01:46:39.931Z,0
2017-12-07T01:47:49.880Z,0
2017-12-07T01:48:59.568Z,0
2017-12-07T01:50:09.539Z,0
2017-12-07T01:51:19.239Z,0
2017-12-07T01:52:28.937Z,0
2017-12-07T01:53:38.680Z,0
2017-12-07T01:54:48.370Z,0
2017-12-07T01:55:58.055Z,0
2017-12-07T01:57:07.999Z,0
2017-12-07T01:58:17.956Z,0
2017-12-07T01:59:27.919Z,0
2017-12-07T02:00:37.343Z,0
2017-12-07T02:01:47.288Z,0
2017-12-07T02:02:57.297Z,0
2017-12-07T02:04:06.991Z,0
2017-12-07T02:05:16.681Z,0
2017-12-07T02:06:26.873Z,0
2017-12-07T02:07:36.042Z,0
2017-12-07T02:08:45.998Z,0
2017-12-07T02:09:55.693Z,0
2017-12-07T02:11:05.383Z,0
2017-12-07T02:12:15.077Z,0
2017-12-07T02:13:24.780Z,0
2017-12-07T02:14:34.477Z,0
2017-12-07T02:15:44.175Z,0
2017-12-07T02:16:54.116Z,0
2017-12-07T02:18:04.073Z,0
2017-12-07T02:19:13.506Z,0
2017-12-07T02:20:22.940Z,0
2017-12-07T02:21:32.883Z,0
2017-12-07T02:22:42.574Z,0
2017-12-07T02:23:51.994Z,0
2017-12-07T02:25:01.945Z,0
2017-12-07T02:26:11.879Z,0
2017-12-07T02:27:21.567Z,0
2017-12-07T02:28:31.570Z,0
2017-12-07T02:29:41.007Z,0
2017-12-07T02:30:50.456Z,0
2017-12-07T02:32:00.419Z,0
2017-12-07T02:33:10.113Z,0
2017-12-07T02:34:19.552Z,0
2017-12-07T02:35:29.250Z,0
2017-12-07T02:36:38.718Z,0
2017-12-07T02:37:48.677Z,0
2017-12-07T02:38:58.621Z,0
2017-12-07T02:40:08.566Z,0
2017-12-07T02:41:18.027Z,0
2017-12-07T02:42:27.990Z,0
2017-12-07T02:43:37.690Z,0
2017-12-07T02:44:47.389Z,0
2017-12-07T02:45:56.842Z,0
2017-12-07T02:47:06.532Z,0
2017-12-07T02:48:16.492Z,0
2017-12-07T02:49:26.196Z,0
2017-12-07T02:50:36.171Z,0
2017-12-07T02:51:45.859Z,0
2017-12-07T02:52:55.814Z,0
2017-12-07T02:54:05.249Z,0
2017-12-07T02:55:15.218Z,0
2017-12-07T02:56:25.166Z,0
2017-12-07T02:57:34.593Z,0
2017-12-07T02:58:44.784Z,0
2017-12-07T02:59:54.743Z,0
2017-12-07T03:01:04.439Z,0
2017-12-07T03:02:14.133Z,0
2017-12-07T03:03:24.308Z,0
2017-12-07T03:04:33.499Z,0
2017-12-07T03:05:43.274Z,0
2017-12-07T03:06:52.969Z,0
2017-12-07T03:08:02.410Z,0
2017-12-07T03:09:12.128Z,0
2017-12-07T03:10:22.075Z,0
2017-12-07T03:11:32.019Z,0
2017-12-07T03:12:41.695Z,0
2017-12-07T03:13:51.396Z,0
2017-12-07T03:15:01.336Z,0
2017-12-07T03:16:10.786Z,0
2017-12-07T03:17:20.736Z,0
2017-12-07T03:18:30.426Z,0
2017-12-07T03:19:40.376Z,0
2017-12-07T03:20:50.340Z,0
2017-12-07T03:22:00.026Z,0
2017-12-07T03:23:09.716Z,0
2017-12-07T03:24:19.411Z,0
2017-12-07T03:25:28.844Z,0
2017-12-07T03:26:38.277Z,0
2017-12-07T03:27:48.238Z,0
2017-12-07T03:28:58.188Z,0
2017-12-07T03:30:08.015Z,0
2017-12-07T03:31:17.994Z,0
2017-12-07T03:32:27.955Z,0
2017-12-07T03:33:37.635Z,0
2017-12-07T03:34:47.322Z,0
2017-12-07T03:35:56.747Z,0
2017-12-07T03:37:06.439Z,0
2017-12-07T03:38:16.402Z,0
2017-12-07T03:39:26.098Z,0
2017-12-07T03:40:36.045Z,0
2017-12-07T03:41:45.477Z,0
2017-12-07T03:42:55.169Z,0
2017-12-07T03:44:04.860Z,0
2017-12-07T03:45:14.293Z,0
2017-12-07T03:46:23.987Z,0
2017-12-07T03:47:33.928Z,0
2017-12-07T03:48:43.877Z,0
2017-12-07T03:49:53.815Z,0
2017-12-07T03:51:03.762Z,0
2017-12-07T03:52:12.938Z,0
2017-12-07T03:53:22.634Z,0
2017-12-07T03:54:32.170Z,0
2017-12-07T03:55:42.107Z,0
2017-12-07T03:56:52.050Z,0
2017-12-07T03:58:02.001Z,0
2017-12-07T03:59:11.701Z,0
2017-12-07T04:00:21.395Z,0
2017-12-07T04:01:31.346Z,0
2017-12-07T04:02:40.538Z,0
2017-12-07T04:03:50.219Z,0
2017-12-07T04:04:59.646Z,0
2017-12-07T04:06:09.350Z,0
2017-12-07T04:07:19.295Z,0
2017-12-07T04:08:29.240Z,0
2017-12-07T04:09:38.956Z,0
2017-12-07T04:10:48.391Z,0
2017-12-07T04:11:58.334Z,0
2017-12-07T04:13:07.781Z,0
2017-12-07T04:14:17.471Z,0
2017-12-07T04:15:27.229Z,0
2017-12-07T04:16:36.913Z,0
2017-12-07T04:17:46.346Z,0
2017-12-07T04:18:55.779Z,0
2017-12-07T04:20:05.468Z,0
2017-12-07T04:21:15.407Z,0
2017-12-07T04:22:25.365Z,0
2017-12-07T04:23:35.064Z,0
2017-12-07T04:24:45.015Z,0
2017-12-07T04:25:54.455Z,0
2017-12-07T04:27:04.150Z,0
2017-12-07T04:28:13.582Z,0
2017-12-07T04:29:23.266Z,0
2017-12-07T04:30:32.960Z,0
2017-12-07T04:31:42.645Z,0
2017-12-07T04:32:52.066Z,0
2017-12-07T04:34:01.751Z,0
2017-12-07T04:35:11.191Z,0
2017-12-07T04:36:20.886Z,0
2017-12-07T04:37:30.574Z,0
2017-12-07T04:38:40.524Z,0
2017-12-07T04:39:50.481Z,0
2017-12-07T04:41:00.171Z,0
2017-12-07T04:42:10.117Z,0
2017-12-07T04:43:19.804Z,0
2017-12-07T04:44:29.241Z,0
2017-12-07T04:45:39.191Z,0
2017-12-07T04:46:49.136Z,0
2017-12-07T04:47:58.823Z,0
2017-12-07T04:49:08.248Z,0
2017-12-07T04:50:18.206Z,0
2017-12-07T04:51:27.381Z,0
2017-12-07T04:52:37.073Z,0
2017-12-07T04:53:46.759Z,0
2017-12-07T04:54:56.459Z,0
2017-12-07T04:56:06.149Z,0
2017-12-07T04:57:16.095Z,0
2017-12-07T04:58:26.045Z,0
2017-12-07T04:59:35.729Z,0
2017-12-07T05:00:45.416Z,0
2017-12-07T05:01:55.106Z,0
2017-12-07T05:03:05.041Z,0
2017-12-07T05:04:14.741Z,0
2017-12-07T05:05:24.437Z,0
2017-12-07T05:06:34.383Z,0
2017-12-07T05:07:44.069Z,0
2017-12-07T05:08:54.018Z,0
2017-12-07T05:10:03.456Z,0
2017-12-07T05:11:13.446Z,0
2017-12-07T05:12:23.397Z,0
2017-12-07T05:13:32.838Z,0
2017-12-07T05:14:42.528Z,0
2017-12-07T05:15:52.229Z,0
2017-12-07T05:17:02.179Z,0
2017-12-07T05:18:11.861Z,0
2017-12-07T05:19:21.558Z,0
2017-12-07T05:20:31.501Z,0
2017-12-07T05:21:41.179Z,0
2017-12-07T05:22:51.142Z,0
2017-12-07T05:24:01.095Z,0
2017-12-07T05:25:10.786Z,0
2017-12-07T05:26:20.482Z,0
2017-12-07T05:27:30.179Z,0
2017-12-07T05:28:40.128Z,0
2017-12-07T05:29:49.811Z,0
2017-12-07T05:30:59.753Z,0
2017-12-07T05:32:09.694Z,0
2017-12-07T05:33:19.632Z,0
2017-12-07T05:34:29.093Z,0
2017-12-07T05:35:39.040Z,0
2017-12-07T05:36:49.001Z,0
2017-12-07T05:37:58.941Z,0
2017-12-07T05:39:08.380Z,0
2017-12-07T05:40:18.078Z,0
2017-12-07T05:41:27.515Z,0
2017-12-07T05:42:36.948Z,0
2017-12-07T05:43:46.168Z,0
2017-12-07T05:44:55.333Z,0
2017-12-07T05:46:05.273Z,0
2017-12-07T05:47:14.954Z,0
2017-12-07T05:48:24.643Z,0
2017-12-07T05:49:34.356Z,0
2017-12-07T05:50:43.524Z,0
2017-12-07T05:51:52.952Z,0
2017-12-07T05:53:02.645Z,0
2017-12-07T05:54:12.594Z,0
2017-12-07T05:55:22.280Z,0
2017-12-07T05:56:32.227Z,0
2017-12-07T05:57:41.913Z,0
2017-12-07T05:58:51.081Z,0
2017-12-07T06:00:00.780Z,0
2017-12-07T06:01:10.722Z,0
2017-12-07T06:02:20.429Z,0
2017-12-07T06:03:30.119Z,0
2017-12-07T06:04:39.818Z,0
2017-12-07T06:05:49.781Z,0
2017-12-07T06:06:59.727Z,0
2017-12-07T06:08:09.420Z,0
2017-12-07T06:09:19.394Z,0
2017-12-07T06:10:29.090Z,0
2017-12-07T06:11:38.510Z,0
2017-12-07T06:12:47.942Z,0
2017-12-07T06:13:57.627Z,0
2017-12-07T06:15:07.577Z,0
2017-12-07T06:16:17.515Z,0
2017-12-07T06:17:27.205Z,0
2017-12-07T06:18:36.891Z,0
2017-12-07T06:19:46.632Z,0
2017-12-07T06:20:56.324Z,0
2017-12-07T06:22:06.026Z,0
2017-12-07T06:23:15.725Z,0
2017-12-07T06:24:25.416Z,0
2017-12-07T06:25:35.369Z,0
2017-12-07T06:26:45.059Z,0
2017-12-07T06:27:54.491Z,4
2017-12-07T06:29:03.674Z,4
2017-12-07T06:30:13.370Z,4
2017-12-07T06:31:23.404Z,4
2017-12-07T06:32:33.089Z,4
2017-12-07T06:33:42.771Z,8
2017-12-07T06:34:52.736Z,8
2017-12-07T06:36:02.666Z,8
2017-12-07T06:37:13.016Z,8
2017-12-07T06:38:22.985Z,12
2017-12-07T06:39:32.682Z,12
2017-12-07T06:40:42.374Z,16
2017-12-07T06:41:51.558Z,20
2017-12-07T06:43:01.515Z,24
2017-12-07T06:44:11.469Z,28
2017-12-07T06:45:20.908Z,36
2017-12-07T06:46:30.346Z,44
2017-12-07T06:47:40.046Z,48
2017-12-07T06:48:49.740Z,56
2017-12-07T06:49:59.684Z,64
2017-12-07T06:51:09.678Z,72
2017-12-07T06:52:19.385Z,80
2017-12-07T06:53:28.838Z,96
2017-12-07T06:54:38.794Z,100
2017-12-07T06:55:48.748Z,116
2017-12-07T06:56:58.494Z,128
2017-12-07T06:58:08.264Z,136
2017-12-07T06:59:17.697Z,152
2017-12-07T07:00:27.394Z,172
2017-12-07T07:01:37.071Z,188
2017-12-07T07:02:46.502Z,200
2017-12-07T07:03:56.195Z,204
2017-12-07T07:05:05.916Z,204
2017-12-07T07:06:15.610Z,216
2017-12-07T07:07:25.319Z,232
2017-12-07T07:08:35.270Z,244
2017-12-07T07:09:44.963Z,272
2017-12-07T07:10:54.676Z,300
2017-12-07T07:12:04.401Z,324
2017-12-07T07:13:14.103Z,344
2017-12-07T07:14:23.800Z,372
2017-12-07T07:15:33.506Z,408
2017-12-07T07:16:43.476Z,424
2017-12-07T07:17:53.173Z,448
2017-12-07T07:19:02.876Z,456
2017-12-07T07:20:12.575Z,456
2017-12-07T07:21:22.545Z,464
2017-12-07T07:22:32.554Z,512
2017-12-07T07:23:42.520Z,532
2017-12-07T07:24:52.215Z,548
2017-12-07T07:26:01.662Z,572
2017-12-07T07:27:11.615Z,620
2017-12-07T07:28:21.322Z,672
2017-12-07T07:29:31.038Z,712
2017-12-07T07:30:40.506Z,740
2017-12-07T07:31:50.465Z,768
2017-12-07T07:33:00.530Z,780
2017-12-07T07:34:10.266Z,792
2017-12-07T07:35:19.970Z,844
2017-12-07T07:36:29.673Z,920
2017-12-07T07:37:39.108Z,980
2017-12-07T07:38:48.541Z,1036
2017-12-07T07:39:58.499Z,1060
2017-12-07T07:41:08.221Z,1128
2017-12-07T07:42:17.927Z,1192
2017-12-07T07:43:27.894Z,1288
2017-12-07T07:44:37.584Z,1388
2017-12-07T07:45:47.543Z,1392
2017-12-07T07:46:57.228Z,1428
2017-12-07T07:48:06.920Z,1464
2017-12-07T07:49:16.876Z,1520
2017-12-07T07:50:26.628Z,1568
2017-12-07T07:51:36.351Z,1668
2017-12-07T07:52:46.314Z,1832
2017-12-07T07:53:56.290Z,1928
2017-12-07T07:55:06.275Z,1984
2017-12-07T07:56:16.236Z,2144
2017-12-07T07:57:26.187Z,2352
2017-12-07T07:58:35.365Z,2516
2017-12-07T07:59:45.170Z,2744
2017-12-07T08:00:55.123Z,3160
2017-12-07T08:02:05.129Z,3668
2017-12-07T08:03:15.109Z,4648
2017-12-07T08:04:25.081Z,5120
2017-12-07T08:05:35.070Z,5452
2017-12-07T08:06:44.773Z,5444
2017-12-07T08:07:54.532Z,5196
2017-12-07T08:09:04.539Z,5080
2017-12-07T08:10:14.497Z,5716
2017-12-07T08:11:24.486Z,6372
2017-12-07T08:12:34.462Z,6276
2017-12-07T08:13:44.439Z,5924
2017-12-07T08:14:54.397Z,6132
2017-12-07T08:16:04.381Z,6224
2017-12-07T08:17:14.096Z,6532
2017-12-07T08:18:24.067Z,6108
2017-12-07T08:19:33.768Z,6032
2017-12-07T08:20:43.480Z,6108
2017-12-07T08:21:53.213Z,6040
2017-12-07T08:23:02.946Z,6116
2017-12-07T08:24:12.894Z,5824
2017-12-07T08:25:22.592Z,5624
2017-12-07T08:26:32.298Z,5780
2017-12-07T08:27:41.995Z,6016
2017-12-07T08:28:52.014Z,6044
2017-12-07T08:30:01.709Z,6020
2017-12-07T08:31:11.420Z,7728
2017-12-07T08:32:21.128Z,7952
2017-12-07T08:33:30.570Z,8032
2017-12-07T08:34:40.037Z,7360
2017-12-07T08:35:49.737Z,7060
2017-12-07T08:36:59.453Z,6940
2017-12-07T08:38:09.424Z,6520
2017-12-07T08:39:19.133Z,6588
2017-12-07T08:40:29.079Z,6472
2017-12-07T08:41:38.769Z,6076
2017-12-07T08:42:48.724Z,6208
2017-12-07T08:43:57.913Z,7204
2017-12-07T08:45:07.632Z,7664
2017-12-07T08:46:17.603Z,8720
2017-12-07T08:47:27.986Z,8656
2017-12-07T08:48:38.093Z,8824
2017-12-07T08:49:48.229Z,8744
2017-12-07T08:50:58.130Z,9292
2017-12-07T08:52:08.112Z,10268
2017-12-07T08:53:18.105Z,10932
2017-12-07T08:54:28.142Z,11492
2017-12-07T08:55:38.126Z,13848
2017-12-07T08:56:47.576Z,15132
2017-12-07T08:57:57.567Z,16864
2017-12-07T08:59:07.039Z,17280
2017-12-07T09:00:16.998Z,20800
2017-12-07T09:01:26.958Z,22848
2017-12-07T09:02:36.927Z,25824
2017-12-07T09:03:46.104Z,26240
2017-12-07T09:04:55.559Z,25216
2017-12-07T09:06:04.741Z,24320
2017-12-07T09:07:14.186Z,23520
2017-12-07T09:08:23.871Z,22240
2017-12-07T09:09:33.837Z,25824
2017-12-07T09:10:43.821Z,25568
2017-12-07T09:11:53.518Z,20800
2017-12-07T09:13:03.475Z,20704
2017-12-07T09:14:13.440Z,25280
2017-12-07T09:15:23.395Z,25600
2017-12-07T09:16:33.353Z,27520
2017-12-07T09:17:43.306Z,21984
2017-12-07T09:18:53.289Z,20608
2017-12-07T09:20:03.237Z,28224
2017-12-07T09:21:13.197Z,27392
2017-12-07T09:22:22.901Z,24640
2017-12-07T09:23:32.613Z,28576
2017-12-07T09:24:42.310Z,29152
2017-12-07T09:25:52.262Z,19424
2017-12-07T09:27:02.039Z,27104
2017-12-07T09:28:12.017Z,24896
2017-12-07T09:29:21.976Z,20448
2017-12-07T09:30:31.960Z,33696
2017-12-07T09:31:41.936Z,29216
2017-12-07T09:32:52.117Z,26208
2017-12-07T09:34:02.098Z,40448
2017-12-07T09:35:11.796Z,20736
2017-12-07T09:36:21.497Z,39328
2017-12-07T09:37:31.472Z,36256
2017-12-07T09:38:41.203Z,20640
2017-12-07T09:39:50.916Z,30304
2017-12-07T09:41:00.870Z,19328
2017-12-07T09:42:10.869Z,16800
2017-12-07T09:43:20.533Z,28992
2017-12-07T09:44:30.495Z,35584
2017-12-07T09:45:39.679Z,36320
2017-12-07T09:46:49.385Z,32960
2017-12-07T09:47:58.618Z,21536
2017-12-07T09:49:08.626Z,25536
2017-12-07T09:50:17.815Z,28544
2017-12-07T09:51:27.810Z,37184
2017-12-07T09:52:37.514Z,24256
2017-12-07T09:53:47.210Z,29920
2017-12-07T09:54:57.217Z,40768
2017-12-07T09:56:07.184Z,31840
2017-12-07T09:57:16.881Z,40992
2017-12-07T09:58:26.571Z,51712
2017-12-07T09:59:36.032Z,21056
2017-12-07T10:00:45.734Z,49792
2017-12-07T10:01:55.684Z,49920
2017-12-07T10:03:05.431Z,43808
2017-12-07T10:04:15.118Z,48896
2017-12-07T10:05:25.077Z,21248
2017-12-07T10:06:35.020Z,47616
2017-12-07T10:07:44.723Z,54528
2017-12-07T10:08:54.683Z,49792
2017-12-07T10:10:04.375Z,50688
2017-12-07T10:11:14.082Z,51328
2017-12-07T10:12:23.796Z,53120
2017-12-07T10:13:33.509Z,47648
2017-12-07T10:14:43.473Z,51616
2017-12-07T10:15:53.421Z,49504
2017-12-07T10:17:03.113Z,54752
2017-12-07T10:18:12.832Z,58496
2017-12-07T10:19:22.800Z,53664
2017-12-07T10:20:32.752Z,55168
2017-12-07T10:21:42.456Z,56576
2017-12-07T10:22:52.147Z,51680
2017-12-07T10:24:01.871Z,49728
2017-12-07T10:25:11.350Z,40288
2017-12-07T10:26:21.355Z,54016
2017-12-07T10:27:31.307Z,39520
2017-12-07T10:28:41.004Z,26656
2017-12-07T10:29:50.706Z,58912
2017-12-07T10:31:00.411Z,59616
2017-12-07T10:32:09.847Z,56608
2017-12-07T10:33:19.546Z,30208
2017-12-07T10:34:29.826Z,61664
2017-12-07T10:35:39.803Z,53760
2017-12-07T10:36:49.537Z,29760
2017-12-07T10:37:59.252Z,48576
2017-12-07T10:39:09.220Z,64064
2017-12-07T10:40:18.701Z,58592
2017-12-07T10:41:28.404Z,56352
2017-12-07T10:42:38.115Z,66464
2017-12-07T10:43:48.071Z,69472
2017-12-07T10:44:57.244Z,57280
2017-12-07T10:46:06.737Z,57088
2017-12-07T10:47:16.708Z,58368
2017-12-07T10:48:26.405Z,63552
2017-12-07T10:49:36.373Z,65408
2017-12-07T10:50:45.815Z,62816
2017-12-07T10:51:55.786Z,65248
2017-12-07T10:53:05.730Z,33632
2017-12-07T10:54:15.703Z,71872
2017-12-07T10:55:25.671Z,41888
2017-12-07T10:56:35.591Z,70944
2017-12-07T10:57:45.552Z,62848
2017-12-07T10:58:55.258Z,57984
2017-12-07T11:00:05.215Z,60896
2017-12-07T11:01:15.186Z,65856
2017-12-07T11:02:25.145Z,60960
2017-12-07T11:03:34.852Z,63872
2017-12-07T11:04:44.562Z,67264
2017-12-07T11:05:54.252Z,58848
2017-12-07T11:07:03.949Z,56800
2017-12-07T11:08:13.664Z,54720
2017-12-07T11:09:23.114Z,59264
2017-12-07T11:10:33.075Z,61216
2017-12-07T11:11:42.772Z,56992
2017-12-07T11:12:52.459Z,52256
2017-12-07T11:14:02.154Z,57728
2017-12-07T11:15:12.108Z,60224
2017-12-07T11:16:22.068Z,54912
2017-12-07T11:17:32.031Z,52064
2017-12-07T11:18:41.469Z,57184
2017-12-07T11:19:51.443Z,50080
2017-12-07T11:21:01.173Z,59456
2017-12-07T11:22:10.876Z,50912
2017-12-07T11:23:20.911Z,51360
2017-12-07T11:24:30.886Z,55104
2017-12-07T11:25:40.897Z,51456
2017-12-07T11:26:50.611Z,51872
2017-12-07T11:28:00.591Z,53952
2017-12-07T11:29:10.326Z,51456
2017-12-07T11:30:20.038Z,49024
2017-12-07T11:31:29.742Z,49184
2017-12-07T11:32:39.469Z,53696
2017-12-07T11:33:49.236Z,55904
2017-12-07T11:34:59.265Z,61632
2017-12-07T11:36:09.484Z,56448
2017-12-07T11:37:19.218Z,53600
2017-12-07T11:38:29.008Z,52608
2017-12-07T11:39:38.993Z,57088
2017-12-07T11:40:48.966Z,57056
2017-12-07T11:41:58.960Z,53888
2017-12-07T11:43:08.430Z,64480
2017-12-07T11:44:18.425Z,67616
2017-12-07T11:45:28.418Z,70528
2017-12-07T11:46:38.384Z,68896
2017-12-07T11:47:47.886Z,67808
2017-12-07T11:48:57.355Z,62656
2017-12-07T11:50:07.354Z,67008
2017-12-07T11:51:17.360Z,66688
2017-12-07T11:52:27.401Z,66752
2017-12-07T11:53:37.116Z,63680
2017-12-07T11:54:46.310Z,60128
2017-12-07T11:55:56.286Z,63008
2017-12-07T11:57:06.018Z,66432
2017-12-07T11:58:15.745Z,65568
2017-12-07T11:59:25.734Z,65248
2017-12-07T12:00:35.730Z,72640
2017-12-07T12:01:45.529Z,67712
2017-12-07T12:02:55.251Z,69568
2017-12-07T12:04:04.723Z,72128
2017-12-07T12:05:14.704Z,70240
2017-12-07T12:06:24.267Z,70176
2017-12-07T12:07:34.262Z,67680
2017-12-07T12:08:44.280Z,66080
2017-12-07T12:09:54.008Z,68544
2017-12-07T12:11:03.773Z,64896
2017-12-07T12:12:13.749Z,70272
2017-12-07T12:13:23.521Z,68992
2017-12-07T12:14:33.254Z,68832
2017-12-07T12:15:43.248Z,72704
2017-12-07T12:16:53.235Z,68320
2017-12-07T12:18:02.687Z,68864
2017-12-07T12:19:12.404Z,71744
2017-12-07T12:20:21.866Z,65888
2017-12-07T12:21:31.592Z,64864
2017-12-07T12:22:41.567Z,72352
2017-12-07T12:23:51.561Z,68832
2017-12-07T12:25:01.555Z,66784
2017-12-07T12:26:11.282Z,68640
2017-12-07T12:27:21.303Z,66496
2017-12-07T12:28:31.023Z,62912
2017-12-07T12:29:40.772Z,66496
2017-12-07T12:30:50.799Z,65536
2017-12-07T12:32:00.252Z,64800
2017-12-07T12:33:10.227Z,61920
2017-12-07T12:34:20.464Z,59552
2017-12-07T12:35:30.218Z,66240
2017-12-07T12:36:40.230Z,63136
2017-12-07T12:37:49.965Z,58496
2017-12-07T12:38:59.967Z,64320
2017-12-07T12:40:09.439Z,61536
2017-12-07T12:41:18.907Z,60256
2017-12-07T12:42:28.990Z,62656
2017-12-07T12:43:39.534Z,62112
2017-12-07T12:44:49.132Z,64992
2017-12-07T12:45:58.938Z,59328
2017-12-07T12:47:08.679Z,61344
2017-12-07T12:48:18.452Z,60352
2017-12-07T12:49:28.501Z,63424
2017-12-07T12:50:38.006Z,62400
2017-12-07T12:51:47.996Z,61120
2017-12-07T12:52:57.729Z,61536
2017-12-07T12:54:07.232Z,59616
2017-12-07T12:55:17.209Z,58400
2017-12-07T12:56:26.929Z,56480
2017-12-07T12:57:36.641Z,56544
2017-12-07T12:58:46.093Z,59008
2017-12-07T12:59:56.076Z,55968
2017-12-07T13:01:05.795Z,38592
2017-12-07T13:02:15.521Z,44000
2017-12-07T13:03:24.982Z,53504
2017-12-07T13:04:34.957Z,56512
2017-12-07T13:05:44.691Z,52992
2017-12-07T13:06:54.660Z,53056
2017-12-07T13:08:04.114Z,53664
2017-12-07T13:09:13.888Z,54400
2017-12-07T13:10:23.859Z,53440
2017-12-07T13:11:33.330Z,51520
2017-12-07T13:12:43.314Z,55104
2017-12-07T13:13:53.281Z,53120
2017-12-07T13:15:02.981Z,50304
2017-12-07T13:16:13.033Z,49792
2017-12-07T13:17:22.931Z,51936
2017-12-07T13:18:32.940Z,50720
2017-12-07T13:19:42.654Z,47392
2017-12-07T13:20:52.649Z,47424
2017-12-07T13:22:02.124Z,47680
2017-12-07T13:23:12.070Z,45824
2017-12-07T13:24:22.050Z,46848
2017-12-07T13:25:31.828Z,47424
2017-12-07T13:26:41.818Z,45376
2017-12-07T13:27:51.786Z,43072
2017-12-07T13:29:01.256Z,44384
2017-12-07T13:30:10.726Z,43712
2017-12-07T13:31:20.695Z,43072
2017-12-07T13:32:30.426Z,43520
2017-12-07T13:33:39.910Z,40736
2017-12-07T13:34:49.878Z,39584
2017-12-07T13:35:59.840Z,39072
2017-12-07T13:37:09.798Z,33184
2017-12-07T13:38:19.502Z,36256
2017-12-07T13:39:28.962Z,36928
2017-12-07T13:40:38.960Z,33120
2017-12-07T13:41:48.412Z,34432
2017-12-07T13:42:58.386Z,35968
2017-12-07T13:44:07.838Z,33472
2017-12-07T13:45:17.562Z,32800
2017-12-07T13:46:27.550Z,31904
2017-12-07T13:47:37.560Z,29600
2017-12-07T13:48:47.512Z,29632
2017-12-07T13:49:57.503Z,30560
2017-12-07T13:51:07.234Z,28672
2017-12-07T13:52:16.962Z,27904
2017-12-07T13:53:26.677Z,29824
2017-12-07T13:54:36.140Z,27776
2017-12-07T13:55:45.582Z,24416
2017-12-07T13:56:55.322Z,24512
2017-12-07T13:58:05.296Z,25472
2017-12-07T13:59:14.763Z,24288
2017-12-07T14:00:24.490Z,26272
2017-12-07T14:01:34.218Z,25792
2017-12-07T14:02:43.953Z,23808
2017-12-07T14:03:53.932Z,21120
2017-12-07T14:05:03.131Z,19840
2017-12-07T14:06:12.603Z,19840
2017-12-07T14:07:22.048Z,16768
2017-12-07T14:08:31.768Z,18112
2017-12-07T14:09:41.489Z,16224
2017-12-07T14:10:51.213Z,15616
2017-12-07T14:12:01.197Z,15968
2017-12-07T14:13:11.176Z,13280
2017-12-07T14:14:21.388Z,9676
2017-12-07T14:15:31.358Z,5500
2017-12-07T14:16:41.078Z,4992
2017-12-07T14:17:50.790Z,4820
2017-12-07T14:19:00.767Z,4660
2017-12-07T14:20:10.222Z,4496
2017-12-07T14:21:20.200Z,4340
2017-12-07T14:22:30.167Z,4176
2017-12-07T14:23:40.145Z,4016
2017-12-07T14:24:49.357Z,3848
2017-12-07T14:25:59.076Z,3688
2017-12-07T14:27:08.790Z,3544
2017-12-07T14:28:18.538Z,3400
2017-12-07T14:29:28.508Z,3252
2017-12-07T14:30:38.472Z,3112
2017-12-07T14:31:48.441Z,2972
2017-12-07T14:32:58.162Z,2840
2017-12-07T14:34:08.132Z,2700
2017-12-07T14:35:17.854Z,2564
2017-12-07T14:36:27.313Z,2432
2017-12-07T14:37:37.276Z,2308
2017-12-07T14:38:47.253Z,2188
2017-12-07T14:39:56.958Z,2068
2017-12-07T14:41:06.684Z,1956
2017-12-07T14:42:16.400Z,1840
2017-12-07T14:43:26.383Z,1736
2017-12-07T14:44:36.407Z,1632
2017-12-07T14:45:46.380Z,1524
2017-12-07T14:46:55.832Z,1428
2017-12-07T14:48:05.560Z,1340
2017-12-07T14:49:15.268Z,1248
2017-12-07T14:50:24.975Z,1164
2017-12-07T14:51:34.734Z,1084
2017-12-07T14:52:44.445Z,1004
2017-12-07T14:53:54.155Z,932
2017-12-07T14:55:04.125Z,864
2017-12-07T14:56:13.832Z,792
2017-12-07T14:57:23.798Z,728
2017-12-07T14:58:33.271Z,668
2017-12-07T14:59:42.983Z,612
2017-12-07T15:00:52.448Z,556
2017-12-07T15:02:01.647Z,504
2017-12-07T15:03:11.100Z,452
2017-12-07T15:04:21.090Z,412
2017-12-07T15:05:30.804Z,364
2017-12-07T15:06:40.778Z,328
2017-12-07T15:07:50.818Z,288
2017-12-07T15:09:00.794Z,256
2017-12-07T15:10:10.244Z,224
2017-12-07T15:11:19.953Z,196
2017-12-07T15:12:29.928Z,172
2017-12-07T15:13:39.638Z,148
2017-12-07T15:14:49.093Z,128
2017-12-07T15:15:58.815Z,108
2017-12-07T15:17:08.809Z,92
2017-12-07T15:18:18.797Z,76
2017-12-07T15:19:28.775Z,64
2017-12-07T15:20:38.760Z,52
2017-12-07T15:21:48.728Z,44
2017-12-07T15:22:58.696Z,36
2017-12-07T15:24:08.680Z,28
2017-12-07T15:25:17.880Z,24
2017-12-07T15:26:27.599Z,20
2017-12-07T15:27:37.328Z,20
2017-12-07T15:28:47.040Z,12
2017-12-07T15:29:56.830Z,12
2017-12-07T15:31:06.812Z,12
2017-12-07T15:32:16.519Z,8
2017-12-07T15:33:26.510Z,8
2017-12-07T15:34:35.972Z,8
2017-12-07T15:35:45.685Z,4
2017-12-07T15:36:55.409Z,4
2017-12-07T15:38:05.401Z,4
2017-12-07T15:39:15.119Z,0
2017-12-07T15:40:24.846Z,4
2017-12-07T15:41:34.817Z,4
2017-12-07T15:42:44.530Z,0
2017-12-07T15:43:54.243Z,0
2017-12-07T15:45:04.238Z,0
2017-12-07T15:46:14.229Z,0
2017-12-07T15:47:23.684Z,0
2017-12-07T15:48:33.652Z,0
2017-12-07T15:49:43.099Z,0
2017-12-07T15:50:52.814Z,0
2017-12-07T15:52:02.520Z,0
2017-12-07T15:53:12.521Z,0
2017-12-07T15:54:22.394Z,0
2017-12-07T15:55:32.108Z,0
2017-12-07T15:56:41.843Z,0
2017-12-07T15:57:51.820Z,0
2017-12-07T15:59:01.787Z,0
2017-12-07T16:00:11.752Z,0
2017-12-07T16:01:21.458Z,0
2017-12-07T16:02:31.187Z,0
2017-12-07T16:03:40.631Z,0
2017-12-07T16:04:50.331Z,0
2017-12-07T16:06:00.324Z,0